createdAt,value
2023-05-04T12:15:14.816Z,19.94
2023-05-04T12:18:45.416Z,20.06
2023-05-04T12:22:13.137Z,20.19
2023-05-04T12:25:50.949Z,20.36
2023-05-04T12:29:22.275Z,20.41
2023-05-04T12:32:49.282Z,20.48
2023-05-04T12:36:16.592Z,20.55
2023-05-04T12:39:43.514Z,20.63
2023-05-04T12:43:10.563Z,20.70
2023-05-04T12:46:38.311Z,20.80
2023-05-04T12:50:05.529Z,20.91
2023-05-04T12:53:33.095Z,21.12
2023-05-04T12:56:59.607Z,21.29
2023-05-04T13:00:28.238Z,21.39
2023-05-04T13:03:56.313Z,21.63
2023-05-04T13:07:23.501Z,21.84
2023-05-04T13:10:50.549Z,22.10
2023-05-04T13:14:18.137Z,22.30
2023-05-04T13:17:45.372Z,22.49
2023-05-04T13:21:13.087Z,22.64
2023-05-04T13:24:40.469Z,22.84
2023-05-04T13:28:08.101Z,22.91
2023-05-04T13:31:35.515Z,23.03
2023-05-04T13:35:02.408Z,23.14
2023-05-04T13:38:30.378Z,23.00
2023-05-04T13:41:57.473Z,22.73
2023-05-04T13:45:25.549Z,22.59
2023-05-04T13:48:52.565Z,22.48
2023-05-04T13:52:20.120Z,22.29
2023-05-04T13:55:47.340Z,22.33
2023-05-04T13:59:15.273Z,22.50
2023-05-04T14:02:42.872Z,22.56
2023-05-04T14:06:09.921Z,22.55
2023-05-04T14:09:37.697Z,22.53
2023-05-04T14:13:08.623Z,22.56
2023-05-04T14:16:38.140Z,22.55
2023-05-04T14:21:09.681Z,22.51
2023-05-04T14:24:37.439Z,22.71
2023-05-04T14:28:05.907Z,22.82
2023-05-04T14:31:33.740Z,23.07
2023-05-04T14:35:10.317Z,23.34
2023-05-04T14:38:39.535Z,23.59
2023-05-04T14:42:07.077Z,23.66
2023-05-04T14:45:35.391Z,23.72
2023-05-04T14:49:02.896Z,23.65
2023-05-04T14:52:29.960Z,23.60
2023-05-04T14:55:57.021Z,23.42
2023-05-04T14:59:24.727Z,23.18
2023-05-04T15:02:51.934Z,22.95
2023-05-04T15:06:18.900Z,22.75
2023-05-04T15:09:45.982Z,22.55
2023-05-04T15:13:16.140Z,22.32
2023-05-04T15:16:43.342Z,22.07
2023-05-04T15:20:12.064Z,21.85
2023-05-04T15:23:39.602Z,21.66
2023-05-04T15:27:07.239Z,21.48
2023-05-04T15:30:49.274Z,21.29
2023-05-04T15:34:57.214Z,21.08
2023-05-04T15:38:56.488Z,20.83
2023-05-04T15:42:58.519Z,20.71
2023-05-04T15:46:30.789Z,20.55
2023-05-04T15:49:58.107Z,20.42
2023-05-04T15:53:24.899Z,20.35
2023-05-04T15:56:51.764Z,20.26
2023-05-04T16:00:20.068Z,20.13
2023-05-04T16:03:47.730Z,20.00
2023-05-04T16:07:15.778Z,19.90
2023-05-04T16:10:42.705Z,19.78
2023-05-04T16:14:09.777Z,19.65
2023-05-04T16:17:37.444Z,19.52
2023-05-04T16:21:05.616Z,19.41
2023-05-04T16:24:32.653Z,19.31
2023-05-04T16:28:00.961Z,19.24
2023-05-04T16:31:27.894Z,19.16
2023-05-04T16:34:57.719Z,19.07
2023-05-04T16:38:24.662Z,18.96
2023-05-04T16:41:52.417Z,18.85
2023-05-04T16:45:19.954Z,18.78
2023-05-04T16:48:47.033Z,18.69
2023-05-04T16:52:13.943Z,18.57
2023-05-04T16:55:41.081Z,18.47
2023-05-04T16:59:07.823Z,18.38
2023-05-04T17:02:35.859Z,18.27
2023-05-04T17:06:02.675Z,18.16
2023-05-04T17:09:29.663Z,18.08
2023-05-04T17:12:57.387Z,18.01
2023-05-04T17:16:29.160Z,17.90
2023-05-04T17:20:07.335Z,17.80
2023-05-04T17:23:35.998Z,17.70
2023-05-04T17:27:03.448Z,17.59
2023-05-04T17:30:30.924Z,17.46
2023-05-04T17:33:57.523Z,17.35
2023-05-04T17:37:24.426Z,17.24
2023-05-04T17:40:51.271Z,17.17
2023-05-04T17:44:19.364Z,17.10
2023-05-04T17:48:06.267Z,17.03
2023-05-04T17:52:16.480Z,16.96
2023-05-04T17:56:09.335Z,16.82
2023-05-04T17:59:51.605Z,16.74
2023-05-04T18:03:39.448Z,16.60
2023-05-04T18:07:29.409Z,16.49
2023-05-04T18:11:12.875Z,16.39
2023-05-04T18:14:59.156Z,16.27
2023-05-04T18:18:53.090Z,16.14
2023-05-04T18:22:24.322Z,15.99
2023-05-04T18:25:53.782Z,15.88
2023-05-04T18:29:25.545Z,15.77
2023-05-04T18:32:53.231Z,15.69
2023-05-04T18:36:25.890Z,15.61
2023-05-04T18:39:53.765Z,15.54
2023-05-04T18:43:21.682Z,15.44
2023-05-04T18:46:50.323Z,15.38
2023-05-04T18:50:21.955Z,15.32
2023-05-04T18:53:50.750Z,15.28
2023-05-04T18:57:22.593Z,15.22
2023-05-04T19:00:53.567Z,15.18
2023-05-04T19:04:22.300Z,15.12
2023-05-04T19:07:54.152Z,15.07
2023-05-04T19:11:24.222Z,14.97
2023-05-04T19:14:52.356Z,14.86
2023-05-04T19:18:23.610Z,14.77
2023-05-04T19:21:53.627Z,14.71
2023-05-04T19:25:33.833Z,14.60
2023-05-04T19:29:05.891Z,14.46
2023-05-04T19:32:33.160Z,14.35
2023-05-04T19:36:05.340Z,14.22
2023-05-04T19:39:32.133Z,14.08
2023-05-04T19:43:10.217Z,13.94
2023-05-04T19:46:37.880Z,13.82
2023-05-04T19:50:05.728Z,13.70
2023-05-04T19:53:33.173Z,13.60
2023-05-04T19:57:00.822Z,13.49
2023-05-04T20:00:29.191Z,13.37
2023-05-04T20:04:00.357Z,13.26
2023-05-04T20:07:30.826Z,13.16
2023-05-04T20:10:58.376Z,13.08
2023-05-04T20:14:29.016Z,12.98
2023-05-04T20:18:00.979Z,12.87
2023-05-04T20:21:30.130Z,12.74
2023-05-04T20:24:59.710Z,12.64
2023-05-04T20:28:29.330Z,12.56
2023-05-04T20:31:58.915Z,12.48
2023-05-04T20:35:29.760Z,12.43
2023-05-04T20:38:58.591Z,12.33
2023-05-04T20:42:27.900Z,12.26
2023-05-04T20:45:55.088Z,12.20
2023-05-04T20:49:24.551Z,12.13
2023-05-04T20:52:54.929Z,12.02
2023-05-04T20:56:24.208Z,11.91
2023-05-04T20:59:52.789Z,11.80
2023-05-04T21:03:21.941Z,11.69
2023-05-04T21:06:49.941Z,11.60
2023-05-04T21:10:19.488Z,11.50
2023-05-04T21:13:49.675Z,11.43
2023-05-04T21:17:16.237Z,11.39
2023-05-04T21:20:44.826Z,11.36
2023-05-04T21:24:14.935Z,11.31
2023-05-04T21:27:44.214Z,11.27
2023-05-04T21:31:12.182Z,11.24
2023-05-04T21:34:39.504Z,11.19
2023-05-04T21:38:06.656Z,11.15
2023-05-04T21:41:33.482Z,11.11
2023-05-04T21:45:01.250Z,11.07
2023-05-04T21:48:28.608Z,11.04
2023-05-04T21:51:56.083Z,10.97
2023-05-04T21:55:23.102Z,10.92
2023-05-04T21:58:50.366Z,10.85
2023-05-04T22:02:17.143Z,10.82
2023-05-04T22:05:44.433Z,10.78
2023-05-04T22:09:12.941Z,10.74
2023-05-04T22:12:40.191Z,10.74
2023-05-04T22:16:09.485Z,10.71
2023-05-04T22:19:36.110Z,10.66
2023-05-04T22:23:02.838Z,10.62
2023-05-04T22:26:29.960Z,10.59
2023-05-04T22:29:56.988Z,10.56
2023-05-04T22:33:24.435Z,10.53
2023-05-04T22:36:51.674Z,10.52
2023-05-04T22:40:19.475Z,10.52
2023-05-04T22:43:46.869Z,10.53
2023-05-04T22:47:14.507Z,10.52
2023-05-04T22:50:42.118Z,10.50
2023-05-04T22:54:09.568Z,10.50
2023-05-04T22:57:36.944Z,10.48
2023-05-04T23:01:04.593Z,10.46
2023-05-04T23:04:31.408Z,10.45
2023-05-04T23:07:58.321Z,10.43
2023-05-04T23:11:25.994Z,10.40
2023-05-04T23:14:55.394Z,10.39
2023-05-04T23:18:22.335Z,10.36
2023-05-04T23:21:49.451Z,10.32
2023-05-04T23:25:16.181Z,10.31
2023-05-04T23:28:43.039Z,10.31
2023-05-04T23:32:10.132Z,10.32
2023-05-04T23:35:37.053Z,10.32
2023-05-04T23:39:04.058Z,10.31
2023-05-04T23:42:30.805Z,10.30
2023-05-04T23:46:07.268Z,10.30
2023-05-04T23:49:34.645Z,10.29
2023-05-04T23:53:02.663Z,10.25
2023-05-04T23:56:30.150Z,10.20
